MST,Max TemperatureF,Mean TemperatureF,Min TemperatureF,Max Dew PointF,MeanDew PointF,Min DewpointF,Max Humidity, Mean Humidity, Min Humidity, Max Sea Level PressureIn, Mean Sea Level PressureIn, Min Sea Level PressureIn, Max VisibilityMiles, Mean VisibilityMiles, Min VisibilityMiles, Max Wind SpeedMPH, Mean Wind SpeedMPH, Max Gust SpeedMPH,PrecipitationIn, CloudCover, Events, WindDirDegrees
2012-12-1,59,45,31,40,33,28,92,70,47,29.96,29.86,29.75,10,10,10,15,6,18,0.00,0,,258
2012-12-2,69,50,30,38,28,24,85,52,19,29.96,29.72,29.48,10,10,10,25,9,32,0.00,0,,209
2012-12-3,59,42,24,39,26,18,76,54,32,30.24,29.97,29.51,10,10,10,30,10,40,0.00,1,,283
2012-12-4,55,38,20,26,19,13,81,50,19,30.40,30.24,30.12,10,10,10,21,7,24,0.00,0,,219
2012-12-5,68,47,26,37,31,22,78,52,26,30.11,29.87,29.72,10,9,1,22,8,26,T,2,Rain,238
2012-12-6,50,39,27,37,25,18,82,63,44,30.15,30.04,29.88,10,9,2,23,8,29,T,6,Snow,98
2012-12-7,42,29,16,27,23,15,92,69,45,30.06,29.94,29.78,10,10,10,17,6,23,0.00,5,,299
2012-12-8,46,31,16,31,21,6,88,68,48,30.09,29.83,29.68,10,10,9,35,18,47,T,5,,258
2012-12-9,16,5,-6,9,3,-8,86,72,58,30.53,30.26,29.99,10,5,0,37,8,47,T,6,Snow,357
2012-12-10,34,15,-4,23,13,-5,87,73,58,30.17,30.05,29.97,10,10,10,29,12,38,0.00,5,,279
2012-12-11,43,27,10,22,15,7,84,57,29,30.06,29.92,29.74,10,10,10,21,9,25,0.00,0,,228
2012-12-12,57,38,18,24,20,15,92,58,24,29.88,29.79,29.68,10,10,10,25,8,32,0.00,0,,241
2012-12-13,51,36,21,25,20,18,75,52,28,30.10,29.98,29.85,10,10,10,25,8,32,0.00,0,,243
2012-12-14,48,35,22,25,21,16,78,56,33,29.86,29.71,29.59,10,10,9,15,3,18,0.00,2,,297
2012-12-15,41,28,16,24,20,15,92,66,40,29.83,29.77,29.65,10,10,10,12,4,,0.00,1,,327
2012-12-16,46,31,15,24,17,11,84,55,25,29.86,29.76,29.65,10,10,10,30,9,37,0.00,3,,262
2012-12-17,51,30,9,24,18,8,88,61,33,29.81,29.63,29.48,10,10,10,26,6,33,0.00,2,,255
2012-12-18,43,34,25,27,11,0,85,52,19,29.90,29.76,29.55,10,10,10,23,12,29,T,2,,268
2012-12-19,29,18,6,22,15,1,88,65,42,30.29,30.04,29.87,10,7,0,20,6,25,T,6,Fog-Snow,289
2012-12-20,42,21,-1,15,5,-5,79,55,30,30.37,30.30,30.24,10,10,8,15,7,20,0.00,0,,249
2012-12-21,50,29,8,21,11,3,80,51,21,30.31,30.19,30.07,10,10,10,12,4,13,0.00,0,,230
2012-12-22,48,31,13,17,11,5,88,53,18,30.16,30.09,29.95,10,10,10,18,5,21,0.00,0,,283
2012-12-23,45,26,6,21,10,2,88,60,31,30.17,30.04,29.88,10,7,5,24,5,30,0.00,0,,316
2012-12-24,18,11,4,14,8,0,88,82,76,30.43,30.11,29.93,5,2,0,18,10,23,T,8,Fog-Snow,36
2012-12-25,11,-1,-14,3,-2,-15,92,83,73,30.62,30.41,30.22,8,4,1,10,3,13,0.01,6,Snow,300
2012-12-26,18,2,-15,12,-1,-17,95,84,73,30.31,30.12,29.78,8,6,4,22,4,28,T,5,Snow,184
2012-12-27,16,4,-8,11,7,-9,88,81,73,30.22,29.96,29.77,10,4,0,15,5,16,T,7,Fog-Snow,353
2012-12-28,25,6,-13,17,3,-16,95,82,68,30.28,30.22,29.98,10,9,5,18,8,23,0.00,2,,253
2012-12-29,24,11,-2,13,5,-5,91,76,60,30.36,30.27,30.10,10,10,9,14,3,15,0.00,0,,232
2012-12-30,26,13,0,16,5,-4,88,74,60,30.29,30.20,30.11,10,10,9,16,6,22,0.00,1,,236
2012-12-31,22,12,1,14,5,-1,96,82,68,30.31,30.26,30.10,9,8,6,10,3,10,0.00,4,,238